createdAt,value
2022-10-22T00:01:56.877Z,5.39
2022-10-22T00:04:26.987Z,5.40
2022-10-22T00:06:57.065Z,5.39
2022-10-22T00:09:26.729Z,5.40
2022-10-22T00:11:56.966Z,5.42
2022-10-22T00:14:27.047Z,5.45
2022-10-22T00:16:57.474Z,5.48
2022-10-22T00:19:28.971Z,5.52
2022-10-22T00:21:58.678Z,5.52
2022-10-22T00:24:27.340Z,5.53
2022-10-22T00:26:56.638Z,5.53
2022-10-22T00:29:25.842Z,5.52
2022-10-22T00:34:25.084Z,5.53
2022-10-22T00:36:54.048Z,5.57
2022-10-22T00:39:24.566Z,5.63
2022-10-22T00:41:54.492Z,5.70
2022-10-22T00:44:43.982Z,5.77
2022-10-22T00:47:13.794Z,5.83
2022-10-22T00:49:43.914Z,5.90
2022-10-22T00:52:14.992Z,5.97
2022-10-22T00:54:45.752Z,6.03
2022-10-22T00:57:16.673Z,6.10
2022-10-22T00:59:46.936Z,6.18
2022-10-22T01:02:17.165Z,6.26
2022-10-22T01:04:46.968Z,6.33
2022-10-22T01:07:21.089Z,6.40
2022-10-22T01:10:03.794Z,6.49
2022-10-22T01:12:33.116Z,6.57
2022-10-22T01:15:12.323Z,6.63
2022-10-22T01:18:01.091Z,6.69
2022-10-22T01:20:49.069Z,6.74
2022-10-22T01:23:23.955Z,6.80
2022-10-22T01:26:05.688Z,6.87
2022-10-22T01:28:47.948Z,6.92
2022-10-22T01:31:19.362Z,6.96
2022-10-22T01:33:50.311Z,6.99
2022-10-22T01:39:07.390Z,7.05
2022-10-22T01:41:39.219Z,7.07
2022-10-22T01:44:23.416Z,7.09
2022-10-22T01:46:56.239Z,7.11
2022-10-22T01:49:30.894Z,7.13
2022-10-22T01:52:03.172Z,7.13
2022-10-22T01:54:35.086Z,7.12
2022-10-22T01:57:13.383Z,7.13
2022-10-22T01:59:59.308Z,7.12
2022-10-22T02:02:42.927Z,7.11
2022-10-22T02:05:20.888Z,7.10
2022-10-22T02:07:57.782Z,7.11
2022-10-22T02:10:28.910Z,7.12
2022-10-22T02:12:59.723Z,7.14
2022-10-22T02:15:30.420Z,7.12
2022-10-22T02:18:01.909Z,7.09
2022-10-22T02:20:33.609Z,7.08
2022-10-22T02:23:02.652Z,7.10
2022-10-22T02:25:33.281Z,7.11
2022-10-22T02:28:04.208Z,7.14
2022-10-22T02:30:34.464Z,7.16
2022-10-22T02:33:10.169Z,7.20
2022-10-22T02:35:41.736Z,7.24
2022-10-22T02:38:12.689Z,7.28
2022-10-22T02:40:42.865Z,7.32
2022-10-22T02:43:13.762Z,7.37
2022-10-22T02:45:43.675Z,7.40
2022-10-22T02:48:12.669Z,7.44
2022-10-22T02:50:42.122Z,7.48
2022-10-22T02:53:10.612Z,7.52
2022-10-22T02:55:40.481Z,7.55
2022-10-22T02:58:10.658Z,7.57
2022-10-22T03:00:40.567Z,7.59
2022-10-22T03:03:10.366Z,7.60
2022-10-22T03:05:40.154Z,7.60
2022-10-22T03:08:10.656Z,7.62
2022-10-22T03:10:40.244Z,7.62
2022-10-22T03:13:10.224Z,7.63
2022-10-22T03:15:39.624Z,7.64
2022-10-22T03:18:09.715Z,7.64
2022-10-22T03:20:39.938Z,7.67
2022-10-22T03:23:10.007Z,7.69
2022-10-22T03:25:41.227Z,7.71
2022-10-22T03:28:11.451Z,7.71
2022-10-22T03:30:41.519Z,7.71
2022-10-22T03:33:11.198Z,7.69
2022-10-22T03:35:44.399Z,7.66
2022-10-22T03:38:14.197Z,7.63
2022-10-22T03:40:45.202Z,7.62
2022-10-22T03:43:13.910Z,7.63
2022-10-22T03:45:42.597Z,7.62
2022-10-22T03:48:11.433Z,7.57
2022-10-22T03:50:40.905Z,7.51
2022-10-22T03:53:11.118Z,7.45
2022-10-22T03:55:41.789Z,7.38
2022-10-22T03:58:11.369Z,7.32
2022-10-22T04:00:40.445Z,7.26
2022-10-22T04:03:09.090Z,7.19
2022-10-22T04:05:37.642Z,7.14
2022-10-22T04:08:07.020Z,7.10
2022-10-22T04:10:36.127Z,7.09
2022-10-22T04:13:05.679Z,7.10
2022-10-22T04:15:34.399Z,7.11
2022-10-22T04:18:03.092Z,7.12
2022-10-22T04:20:32.317Z,7.15
2022-10-22T04:23:01.604Z,7.17
2022-10-22T04:25:30.165Z,7.16
2022-10-22T04:27:59.081Z,7.15
2022-10-22T04:30:29.497Z,7.18
2022-10-22T04:32:58.025Z,7.20
2022-10-22T04:35:26.792Z,7.23
2022-10-22T04:37:56.459Z,7.24
2022-10-22T04:40:24.865Z,7.24
2022-10-22T04:42:53.626Z,7.25
2022-10-22T04:45:22.055Z,7.25
2022-10-22T04:47:51.107Z,7.25
2022-10-22T04:50:19.795Z,7.27
2022-10-22T04:52:48.522Z,7.30
2022-10-22T04:55:17.120Z,7.34
2022-10-22T04:57:46.021Z,7.37
2022-10-22T05:00:16.768Z,7.41
2022-10-22T05:02:49.106Z,7.32
2022-10-22T05:05:17.528Z,7.25
2022-10-22T05:07:46.316Z,7.15
2022-10-22T05:10:15.107Z,7.09
2022-10-22T05:12:43.685Z,7.05
2022-10-22T05:15:12.123Z,7.04
2022-10-22T05:17:41.041Z,7.03
2022-10-22T05:20:09.947Z,7.02
2022-10-22T05:22:38.223Z,7.05
2022-10-22T05:25:07.012Z,7.10
2022-10-22T05:27:35.595Z,7.15
2022-10-22T05:30:04.075Z,7.21
2022-10-22T05:32:32.419Z,7.28
2022-10-22T05:35:00.729Z,7.34
2022-10-22T05:37:28.955Z,7.37
2022-10-22T05:40:06.775Z,7.37
2022-10-22T05:42:45.944Z,7.41
2022-10-22T05:45:14.649Z,7.47
2022-10-22T05:47:43.089Z,7.53
2022-10-22T05:50:11.395Z,7.58
2022-10-22T05:52:40.043Z,7.64
2022-10-22T05:55:08.953Z,7.71
2022-10-22T05:57:37.227Z,7.81
2022-10-22T06:00:05.959Z,7.92
2022-10-22T06:02:34.255Z,8.02
2022-10-22T06:05:02.568Z,8.13
2022-10-22T06:07:31.150Z,8.25
2022-10-22T06:09:59.836Z,8.38
2022-10-22T06:12:28.222Z,8.53
2022-10-22T06:14:57.207Z,8.71
2022-10-22T06:17:25.893Z,8.93
2022-10-22T06:19:54.419Z,9.28
2022-10-22T06:22:23.058Z,9.74
2022-10-22T06:24:52.155Z,10.23
2022-10-22T06:27:20.530Z,10.65
2022-10-22T06:29:49.117Z,11.05
2022-10-22T06:32:17.492Z,11.53
2022-10-22T06:34:46.796Z,12.08
2022-10-22T06:37:15.793Z,12.61
2022-10-22T06:39:45.189Z,13.04
2022-10-22T06:42:13.570Z,13.17
2022-10-22T06:44:42.358Z,13.33
2022-10-22T06:47:10.645Z,13.60
2022-10-22T06:49:39.331Z,13.91
2022-10-22T06:52:07.697Z,14.19
2022-10-22T06:54:36.379Z,14.54
2022-10-22T06:57:04.963Z,14.80
2022-10-22T06:59:33.339Z,14.88
2022-10-22T07:02:01.727Z,15.00
2022-10-22T07:04:30.098Z,15.02
2022-10-22T07:06:58.585Z,15.24
2022-10-22T07:09:28.701Z,15.27
2022-10-22T07:11:56.974Z,15.70
2022-10-22T07:14:25.352Z,15.95
2022-10-22T07:16:53.828Z,16.47
2022-10-22T07:19:22.113Z,16.54
2022-10-22T07:21:50.488Z,16.71
2022-10-22T07:24:19.481Z,17.05
2022-10-22T07:26:48.840Z,17.79
2022-10-22T07:29:17.116Z,18.10
2022-10-22T07:31:45.687Z,18.53
2022-10-22T07:34:14.247Z,18.67
2022-10-22T07:36:42.592Z,18.96
2022-10-22T07:39:10.857Z,19.45
2022-10-22T07:41:39.171Z,20.25
2022-10-22T07:44:07.615Z,20.07
2022-10-22T07:46:36.112Z,20.15
2022-10-22T07:49:04.576Z,19.56
2022-10-22T07:51:32.934Z,19.58
2022-10-22T07:54:01.418Z,20.05
2022-10-22T07:56:29.656Z,20.23
2022-10-22T07:58:58.080Z,20.43
2022-10-22T08:01:26.444Z,21.09
2022-10-22T08:03:54.761Z,20.86
2022-10-22T08:06:23.342Z,20.81
2022-10-22T08:08:51.965Z,20.69
2022-10-22T08:11:20.841Z,20.63
2022-10-22T08:13:49.507Z,21.18
2022-10-22T08:16:17.882Z,21.35
2022-10-22T08:18:46.255Z,21.65
2022-10-22T08:21:15.970Z,21.36
2022-10-22T08:23:44.449Z,22.06
2022-10-22T08:26:12.727Z,22.19
2022-10-22T08:28:41.310Z,22.52
2022-10-22T08:31:10.409Z,22.69
2022-10-22T08:33:39.601Z,22.71
2022-10-22T08:36:08.599Z,22.40
2022-10-22T08:38:37.077Z,22.77
2022-10-22T08:41:24.396Z,22.95
2022-10-22T08:43:56.055Z,22.14
2022-10-22T08:46:36.614Z,22.71
2022-10-22T08:51:43.619Z,22.75
2022-10-22T08:54:23.459Z,22.99
2022-10-22T08:57:01.672Z,23.22
2022-10-22T08:59:35.474Z,23.75
2022-10-22T09:02:09.178Z,24.36
2022-10-22T09:04:43.292Z,24.35
2022-10-22T09:07:11.981Z,24.41
2022-10-22T09:09:43.024Z,24.85
2022-10-22T09:12:20.118Z,24.88
2022-10-22T09:14:49.297Z,25.19
2022-10-22T09:17:36.421Z,25.65
2022-10-22T09:20:28.932Z,25.69
2022-10-22T09:23:13.726Z,25.58
2022-10-22T09:25:42.615Z,25.57
2022-10-22T09:28:11.308Z,25.83
2022-10-22T09:30:40.710Z,26.05
2022-10-22T09:33:20.264Z,26.07
2022-10-22T09:35:54.055Z,26.51
2022-10-22T09:38:25.706Z,26.76
2022-10-22T09:40:55.514Z,25.89
2022-10-22T09:43:23.992Z,25.47
2022-10-22T09:46:03.435Z,25.13
2022-10-22T09:48:37.696Z,24.80
2022-10-22T09:51:06.224Z,23.71
2022-10-22T09:53:39.215Z,22.82
2022-10-22T09:56:17.834Z,21.88
2022-10-22T09:58:49.603Z,21.85
2022-10-22T10:01:22.576Z,21.61
2022-10-22T10:03:51.475Z,20.89
2022-10-22T10:06:21.274Z,20.69
2022-10-22T10:08:50.270Z,20.91
2022-10-22T10:11:38.111Z,20.66
2022-10-22T10:14:18.463Z,20.40
2022-10-22T10:16:50.322Z,20.25
2022-10-22T10:19:21.366Z,20.46
2022-10-22T10:22:09.097Z,20.67
2022-10-22T10:24:45.786Z,21.29
2022-10-22T10:27:27.005Z,21.58
2022-10-22T10:30:01.370Z,21.71
2022-10-22T10:32:29.748Z,21.48
2022-10-22T10:35:07.447Z,21.33
2022-10-22T10:37:41.657Z,20.92
2022-10-22T10:40:28.570Z,20.78
2022-10-22T10:43:11.387Z,20.66
2022-10-22T10:45:42.733Z,20.95
2022-10-22T10:48:17.266Z,21.24
2022-10-22T10:50:48.710Z,21.98
2022-10-22T10:53:35.726Z,22.69
2022-10-22T10:56:22.439Z,22.65
2022-10-22T10:59:13.845Z,23.11
2022-10-22T11:02:18.785Z,24.08
2022-10-22T11:05:05.906Z,25.66
2022-10-22T11:08:09.512Z,26.39
2022-10-22T11:10:37.782Z,26.95
2022-10-22T11:13:14.455Z,27.09
2022-10-22T11:15:45.392Z,26.89
2022-10-22T11:18:36.709Z,27.08
2022-10-22T11:21:21.882Z,27.75
2022-10-22T11:23:57.949Z,27.56
2022-10-22T11:26:38.718Z,27.57
2022-10-22T11:29:11.797Z,26.80
2022-10-22T11:31:41.217Z,25.95
2022-10-22T11:34:34.320Z,25.41
2022-10-22T11:37:05.501Z,25.38
2022-10-22T11:39:43.109Z,25.38
2022-10-22T11:42:21.925Z,25.50
2022-10-22T11:45:01.458Z,25.85
2022-10-22T11:47:35.061Z,26.38
2022-10-22T11:50:25.680Z,26.52
2022-10-22T11:53:03.563Z,25.98
2022-10-22T11:55:50.891Z,26.36
2022-10-22T11:58:30.883Z,27.43
2022-10-22T12:01:02.285Z,27.87
2022-10-22T12:03:33.437Z,28.09
2022-10-22T12:06:12.359Z,26.18
2022-10-22T12:08:43.851Z,25.84
2022-10-22T12:11:12.292Z,26.34
2022-10-22T12:14:02.384Z,25.95
2022-10-22T12:16:54.522Z,24.84
2022-10-22T12:19:22.476Z,24.57
2022-10-22T12:21:57.921Z,23.92
2022-10-22T12:24:29.983Z,23.13
2022-10-22T12:26:58.566Z,23.93
2022-10-22T12:29:28.067Z,24.40
2022-10-22T12:31:57.943Z,25.15
2022-10-22T12:34:26.468Z,25.98
2022-10-22T12:36:54.846Z,26.13
2022-10-22T12:39:26.398Z,25.76
2022-10-22T12:41:55.495Z,25.10
2022-10-22T12:44:23.977Z,24.73
2022-10-22T12:46:56.010Z,24.12
2022-10-22T12:49:36.721Z,22.86
2022-10-22T12:52:08.805Z,22.15
2022-10-22T12:54:40.323Z,21.76
2022-10-22T12:57:14.235Z,21.24
2022-10-22T12:59:47.261Z,20.91
2022-10-22T13:02:22.352Z,20.73
2022-10-22T13:05:09.475Z,20.53
2022-10-22T13:07:47.375Z,20.27
2022-10-22T13:10:18.900Z,20.29
2022-10-22T13:12:50.683Z,20.06
2022-10-22T13:15:28.381Z,19.99
2022-10-22T13:18:03.225Z,19.86
2022-10-22T13:20:31.995Z,19.83
2022-10-22T13:23:06.623Z,19.81
2022-10-22T13:25:40.946Z,19.78
2022-10-22T13:28:15.267Z,19.72
2022-10-22T13:30:52.926Z,19.60
2022-10-22T13:33:27.280Z,19.65
2022-10-22T13:35:56.882Z,19.64
2022-10-22T13:38:26.181Z,19.66
2022-10-22T13:40:55.472Z,19.63
2022-10-22T13:43:25.324Z,19.61
2022-10-22T13:45:56.129Z,19.58
2022-10-22T13:48:26.041Z,19.51
2022-10-22T13:50:54.411Z,19.46
2022-10-22T13:53:24.848Z,19.39
2022-10-22T13:55:53.444Z,19.30
2022-10-22T13:58:26.322Z,19.20
2022-10-22T14:00:59.375Z,19.06
2022-10-22T14:03:32.594Z,18.93
2022-10-22T14:06:01.586Z,18.82
2022-10-22T14:08:30.062Z,18.74
2022-10-22T14:10:58.648Z,18.66
2022-10-22T14:13:28.462Z,18.57
2022-10-22T14:15:56.842Z,18.48
2022-10-22T14:18:29.208Z,18.39
2022-10-22T14:21:00.252Z,18.27
2022-10-22T14:23:30.170Z,18.16
2022-10-22T14:25:59.019Z,18.05
2022-10-22T14:28:27.950Z,17.95
2022-10-22T14:30:56.535Z,17.86
2022-10-22T14:33:28.799Z,17.77
2022-10-22T14:36:00.558Z,17.67
2022-10-22T14:38:29.552Z,17.56
2022-10-22T14:40:58.239Z,17.48
2022-10-22T14:43:28.053Z,17.38
2022-10-22T14:45:57.154Z,17.26
2022-10-22T14:48:25.727Z,17.13
2022-10-22T14:50:54.927Z,17.00
2022-10-22T14:53:23.305Z,16.88
2022-10-22T14:55:52.504Z,16.72
2022-10-22T14:58:20.892Z,16.55
2022-10-22T15:00:49.210Z,16.41
2022-10-22T15:03:17.534Z,16.31
2022-10-22T15:05:45.914Z,16.22
2022-10-22T15:08:15.104Z,16.13
2022-10-22T15:10:43.587Z,16.11
2022-10-22T15:13:12.162Z,16.07
2022-10-22T15:15:41.472Z,16.04
2022-10-22T15:18:11.077Z,16.02
2022-10-22T15:20:39.457Z,16.02
2022-10-22T15:23:08.040Z,16.02
2022-10-22T15:25:36.418Z,15.98
2022-10-22T15:28:09.582Z,15.94
2022-10-22T15:30:38.423Z,15.84
2022-10-22T15:33:06.774Z,15.69
2022-10-22T15:35:35.362Z,15.54
2022-10-22T15:38:06.638Z,15.39
2022-10-22T15:40:34.878Z,15.30
2022-10-22T15:43:03.361Z,15.23
2022-10-22T15:45:31.642Z,15.21
2022-10-22T15:48:00.014Z,15.18
2022-10-22T15:50:28.703Z,15.14
2022-10-22T15:52:57.179Z,15.14
2022-10-22T15:55:25.671Z,15.16
2022-10-22T15:57:57.203Z,15.18
2022-10-22T16:00:27.953Z,15.18
2022-10-22T16:02:56.235Z,15.18
2022-10-22T16:05:24.501Z,15.13
2022-10-22T16:07:55.866Z,15.09
2022-10-22T16:10:24.748Z,15.06
2022-10-22T16:12:54.959Z,15.03
2022-10-22T16:15:23.234Z,15.01
2022-10-22T16:17:52.126Z,14.96
2022-10-22T16:20:20.306Z,14.90
2022-10-22T16:22:50.013Z,14.83
2022-10-22T16:25:18.489Z,14.77
2022-10-22T16:27:49.432Z,14.71
2022-10-22T16:30:18.430Z,14.68
2022-10-22T16:32:46.698Z,14.66
2022-10-22T16:35:15.281Z,14.62
2022-10-22T16:37:43.984Z,14.60
2022-10-22T16:40:12.984Z,14.56
2022-10-22T16:42:42.258Z,14.57
2022-10-22T16:45:11.049Z,14.57
2022-10-22T16:47:40.274Z,14.58
2022-10-22T16:50:09.851Z,14.59
2022-10-22T16:52:38.332Z,14.60
2022-10-22T16:55:06.931Z,14.58
2022-10-22T16:57:36.217Z,14.56
2022-10-22T17:00:05.819Z,14.52
2022-10-22T17:02:35.535Z,14.49
2022-10-22T17:05:04.010Z,14.49
2022-10-22T17:07:32.291Z,14.48
2022-10-22T17:10:01.508Z,14.50
2022-10-22T17:12:35.804Z,14.53
2022-10-22T17:15:07.154Z,14.55
2022-10-22T17:17:35.427Z,14.57
2022-10-22T17:20:03.909Z,14.55
2022-10-22T17:22:32.696Z,14.52
2022-10-22T17:25:09.263Z,14.46
2022-10-22T17:27:37.540Z,14.39
2022-10-22T17:30:06.227Z,14.32
2022-10-22T17:32:38.934Z,14.27
2022-10-22T17:35:07.798Z,14.25
2022-10-22T17:37:36.075Z,14.20
2022-10-22T17:40:05.290Z,14.17
2022-10-22T17:42:33.556Z,14.16
2022-10-22T17:45:01.825Z,14.14
2022-10-22T17:47:30.100Z,14.10
2022-10-22T17:49:58.583Z,14.07
2022-10-22T17:52:26.859Z,14.04
2022-10-22T17:54:55.332Z,14.03
2022-10-22T17:57:23.719Z,14.01
2022-10-22T17:59:51.986Z,13.98
2022-10-22T18:02:20.793Z,13.98
2022-10-22T18:04:52.641Z,13.98
2022-10-22T18:07:21.343Z,13.97
2022-10-22T18:09:49.736Z,13.98
2022-10-22T18:12:18.387Z,13.96
2022-10-22T18:14:47.380Z,13.96
2022-10-22T18:17:15.759Z,13.95
2022-10-22T18:19:44.036Z,13.94
2022-10-22T18:22:12.211Z,13.94
2022-10-22T18:24:40.485Z,13.94
2022-10-22T18:27:08.660Z,13.94
2022-10-22T18:29:37.239Z,13.93
2022-10-22T18:32:12.131Z,13.92
2022-10-22T18:34:41.675Z,13.90
2022-10-22T18:37:10.055Z,13.89
2022-10-22T18:39:38.329Z,13.90
2022-10-22T18:42:07.487Z,13.91
2022-10-22T18:44:36.317Z,13.92
2022-10-22T18:47:04.802Z,13.92
2022-10-22T18:49:32.974Z,13.91
2022-10-22T18:52:01.351Z,13.90
2022-10-22T18:54:29.624Z,13.89
2022-10-22T18:57:00.482Z,13.86
2022-10-22T18:59:31.431Z,13.84
2022-10-22T19:02:00.509Z,13.83
2022-10-22T19:04:33.480Z,13.81
2022-10-22T19:07:01.837Z,13.79
2022-10-22T19:09:30.751Z,13.75
2022-10-22T19:12:00.259Z,13.72
2022-10-22T19:14:28.842Z,13.70
2022-10-22T19:16:57.046Z,13.69
2022-10-22T19:19:25.285Z,13.67
2022-10-22T19:21:53.975Z,13.65
2022-10-22T19:24:22.972Z,13.65
2022-10-22T19:26:51.381Z,13.63
2022-10-22T19:29:20.643Z,13.59
2022-10-22T19:31:51.287Z,13.56
2022-10-22T19:34:20.267Z,13.53
2022-10-22T19:36:48.749Z,13.50
2022-10-22T19:39:17.756Z,13.44
2022-10-22T19:41:46.329Z,13.36
2022-10-22T19:44:14.604Z,13.30
2022-10-22T19:46:43.016Z,13.26
2022-10-22T19:49:11.254Z,13.24
2022-10-22T19:51:40.451Z,13.24
2022-10-22T19:54:12.002Z,13.24
2022-10-22T19:56:41.435Z,13.24
2022-10-22T19:59:09.790Z,13.20
2022-10-22T20:01:38.110Z,13.13
2022-10-22T20:04:06.955Z,13.07
2022-10-22T20:06:35.229Z,13.01
2022-10-22T20:09:03.583Z,12.99
2022-10-22T20:11:31.881Z,12.98
2022-10-22T20:14:00.262Z,12.98
2022-10-22T20:16:30.104Z,12.97
2022-10-22T20:19:02.958Z,12.97
2022-10-22T20:21:31.539Z,12.98
2022-10-22T20:24:00.433Z,12.98
2022-10-22T20:26:29.226Z,12.99
2022-10-22T20:28:58.429Z,12.99
2022-10-22T20:31:29.876Z,12.98
2022-10-22T20:33:58.971Z,12.97
2022-10-22T20:36:28.879Z,12.97
2022-10-22T20:39:08.724Z,12.97
2022-10-22T20:41:40.893Z,12.97
2022-10-22T20:44:14.598Z,12.97
2022-10-22T20:46:43.309Z,12.97
2022-10-22T20:49:13.807Z,12.95
2022-10-22T20:51:43.142Z,12.93
2022-10-22T20:54:11.794Z,12.89
2022-10-22T20:56:41.309Z,12.86
2022-10-22T20:59:11.182Z,12.80
2022-10-22T21:01:49.908Z,12.79
2022-10-22T21:04:20.161Z,12.78
2022-10-22T21:06:50.659Z,12.75
2022-10-22T21:09:19.871Z,12.74
2022-10-22T21:11:48.435Z,12.70
2022-10-22T21:14:19.953Z,12.65
2022-10-22T21:16:51.781Z,12.62
2022-10-22T21:19:20.796Z,12.60
2022-10-22T21:21:50.071Z,12.55
2022-10-22T21:24:18.653Z,12.50
2022-10-22T21:26:47.027Z,12.47
2022-10-22T21:29:15.514Z,12.44
2022-10-22T21:31:44.209Z,12.41
2022-10-22T21:34:13.709Z,12.39
2022-10-22T21:36:42.975Z,12.39
2022-10-22T21:39:12.607Z,12.39
2022-10-22T21:41:41.502Z,12.38
2022-10-22T21:44:10.090Z,12.39
2022-10-22T21:46:39.074Z,12.40
2022-10-22T21:49:07.561Z,12.39
2022-10-22T21:51:38.406Z,12.40
2022-10-22T21:54:07.088Z,12.38
2022-10-22T21:56:36.369Z,12.37
2022-10-22T21:59:06.192Z,12.35
2022-10-22T22:01:35.834Z,12.34
2022-10-22T22:04:04.425Z,12.30
2022-10-22T22:06:33.876Z,12.28
2022-10-22T22:09:04.395Z,12.25
2022-10-22T22:11:34.095Z,12.22
2022-10-22T22:14:02.400Z,12.18
2022-10-22T22:16:32.415Z,12.11
2022-10-22T22:21:33.498Z,11.99
2022-10-22T22:24:03.494Z,11.89
2022-10-22T22:26:32.593Z,11.82
2022-10-22T22:29:01.612Z,11.74
2022-10-22T22:31:32.287Z,11.68
2022-10-22T22:34:01.015Z,11.65
2022-10-22T22:36:33.069Z,11.60
2022-10-22T22:39:02.193Z,11.58
2022-10-22T22:41:31.575Z,11.57
2022-10-22T22:44:00.525Z,11.57
2022-10-22T22:46:30.084Z,11.58
2022-10-22T22:48:59.058Z,11.60
2022-10-22T22:51:27.657Z,11.62
2022-10-22T22:54:01.097Z,11.62
2022-10-22T22:56:31.466Z,11.60
2022-10-22T22:59:01.247Z,11.55
2022-10-22T23:01:33.901Z,11.49
2022-10-22T23:04:11.677Z,11.47
2022-10-22T23:06:41.076Z,11.46
2022-10-22T23:09:12.463Z,11.46
2022-10-22T23:11:42.104Z,11.44
2022-10-22T23:14:14.395Z,11.42
2022-10-22T23:16:46.578Z,11.39
2022-10-22T23:19:16.366Z,11.37
2022-10-22T23:21:46.478Z,11.34
2022-10-22T23:24:17.510Z,11.32
2022-10-22T23:26:48.042Z,11.31
2022-10-22T23:29:28.607Z,11.29
2022-10-22T23:31:59.655Z,11.29
2022-10-22T23:34:30.582Z,11.31
2022-10-22T23:36:59.840Z,11.32
2022-10-22T23:39:29.903Z,11.33
2022-10-22T23:41:59.014Z,11.34
2022-10-22T23:44:28.094Z,11.33
2022-10-22T23:46:57.161Z,11.33
2022-10-22T23:49:28.124Z,11.32
2022-10-22T23:51:57.210Z,11.32
2022-10-22T23:54:26.107Z,11.32
2022-10-22T23:56:55.334Z,11.32
2022-10-22T23:59:24.745Z,11.33
